Time;durP1;ratioP1;P1;durP2;ratioP2;P2;SDS_P1;SDS_P2;PMS_P1;PMS_P2;Temp;Humidity;BMP_temperature;BMP_pressure;BME280_temperature;BME280_humidity;BME280_pressure;Samples;Min_cycle;Max_cycle;Signal;HPM_P1;HPM_P2
2023/05/27 00:00:32;;;;;;;;;;;8.70;61.80;;;;;;4127624;28;20021;-86
2023/05/27 00:02:53;;;;;;;;;;;8.70;61.80;;;;;;4129822;28;19980;-87
2023/05/27 00:05:14;;;;;;;;;;;8.70;62.70;;;;;;4125524;28;20428;-87
2023/05/27 00:07:35;;;;;;;;;;;8.70;62.00;;;;;;4125284;28;19965;-87
2023/05/27 00:09:56;;;;;;;;;;;8.60;61.90;;;;;;4127245;28;19910;-88
2023/05/27 00:12:17;;;;;;;;;;;8.60;62.00;;;;;;4128748;28;19920;-87
2023/05/27 00:14:38;;;;;;;;;;;8.70;62.10;;;;;;4127459;28;19984;-87
2023/05/27 00:17:01;;;;;;;;;;;8.60;62.10;;;;;;4128112;28;19921;-87
2023/05/27 00:19:23;;;;;;;;;;;8.60;62.10;;;;;;4116934;28;19938;-86
2023/05/27 00:21:44;;;;;;;;;;;8.60;62.10;;;;;;4116528;28;19922;-87
2023/05/27 00:24:05;;;;;;;;;;;8.60;62.10;;;;;;4109075;28;20277;-88
2023/05/27 00:26:26;;;;;;;;;;;8.50;61.90;;;;;;4116482;28;20307;-87
2023/05/27 00:28:46;;;;;;;;;;;8.50;61.80;;;;;;4126875;28;19914;-86
2023/05/27 00:31:07;;;;;;;;;;;8.40;61.70;;;;;;4110149;28;19945;-88
2023/05/27 00:33:29;;;;;;;;;;;8.50;61.80;;;;;;4132131;28;19964;-87
2023/05/27 00:35:50;;;;;;;;;;;8.40;61.80;;;;;;4129252;28;20335;-89
2023/05/27 00:38:21;;;;;;;;;;;8.40;61.80;;;;;;4129485;28;20446;-89
2023/05/27 00:40:43;;;;;;;;;;;8.30;61.60;;;;;;4124501;28;19979;-87
2023/05/27 00:43:03;;;;;;;;;;;8.30;61.50;;;;;;4132698;28;19920;-86
2023/05/27 00:45:25;;;;;;;;;;;8.30;61.40;;;;;;4114205;28;20414;-88
2023/05/27 00:47:45;;;;;;;;;;;8.30;61.50;;;;;;4127772;28;20383;-87
2023/05/27 00:50:07;;;;;;;;;;;8.20;61.40;;;;;;4115209;28;20384;-86
2023/05/27 00:52:29;;;;;;;;;;;8.20;61.40;;;;;;4111929;28;20284;-87
2023/05/27 00:54:50;;;;;;;;;;;8.10;61.00;;;;;;4129315;28;19914;-88
2023/05/27 00:57:11;;;;;;;;;;;8.10;61.10;;;;;;4142643;28;19940;-87
2023/05/27 00:59:32;;;;;;;;;;;8.10;61.30;;;;;;4124376;28;19929;-90
2023/05/27 01:01:53;;;;;;;;;;;8.10;61.60;;;;;;4123149;28;19921;-89
2023/05/27 01:04:14;;;;;;;;;;;8.00;62.10;;;;;;4115728;28;20352;-86
2023/05/27 01:06:54;;;;;;;;;;;8.00;62.00;;;;;;4112836;28;20120;-86
2023/05/27 01:09:33;;;;;;;;;;;7.90;62.10;;;;;;4131007;28;20002;-87
2023/05/27 01:12:13;;;;;;;;;;;7.80;62.20;;;;;;4121603;28;19928;-85
2023/05/27 01:14:36;;;;;;;;;;;7.80;62.50;;;;;;4124637;28;19957;-87
2023/05/27 01:17:00;;;;;;;;;;;7.70;62.50;;;;;;4129381;28;20406;-88
2023/05/27 01:19:30;;;;;;;;;;;7.80;62.60;;;;;;4128168;28;19914;-88
2023/05/27 01:21:52;;;;;;;;;;;7.70;62.50;;;;;;4125549;28;19914;-88
2023/05/27 01:24:13;;;;;;;;;;;7.70;62.80;;;;;;4124298;28;20373;-87
2023/05/27 01:26:34;;;;;;;;;;;7.70;63.00;;;;;;4129040;28;19921;-86
2023/05/27 01:28:55;;;;;;;;;;;7.60;63.00;;;;;;4142296;28;20027;-91
2023/05/27 01:31:23;;;;;;;;;;;7.60;62.90;;;;;;4114163;28;19962;-87
2023/05/27 01:33:48;;;;;;;;;;;7.60;62.80;;;;;;4116933;28;19924;-86
2023/05/27 01:36:17;;;;;;;;;;;7.60;63.00;;;;;;4123162;28;19937;-88
2023/05/27 01:38:43;;;;;;;;;;;7.50;63.00;;;;;;4123020;28;19996;-88
2023/05/27 01:41:04;;;;;;;;;;;7.50;63.20;;;;;;4110883;28;20311;-88
2023/05/27 01:43:25;;;;;;;;;;;7.50;63.10;;;;;;4124761;28;19921;-89
2023/05/27 01:45:46;;;;;;;;;;;7.40;63.70;;;;;;4127244;28;19918;-88
2023/05/27 01:48:09;;;;;;;;;;;7.40;63.00;;;;;;4114945;28;20328;-88
2023/05/27 01:50:33;;;;;;;;;;;7.40;63.10;;;;;;4114385;28;19922;-88
2023/05/27 01:52:54;;;;;;;;;;;7.40;63.20;;;;;;4108368;28;19964;-87
2023/05/27 01:55:14;;;;;;;;;;;7.40;63.40;;;;;;4126619;28;19918;-86
2023/05/27 01:57:35;;;;;;;;;;;7.30;63.20;;;;;;4127859;28;19918;-87
2023/05/27 01:59:56;;;;;;;;;;;7.30;63.30;;;;;;4113554;28;19933;-88
2023/05/27 02:02:17;;;;;;;;;;;7.30;63.30;;;;;;4123245;28;19914;-86
2023/05/27 02:04:38;;;;;;;;;;;7.30;63.30;;;;;;4111857;28;19919;-86
2023/05/27 02:06:59;;;;;;;;;;;7.30;63.30;;;;;;4124267;28;20097;-87
2023/05/27 02:09:20;;;;;;;;;;;7.30;63.30;;;;;;4126112;28;19925;-89
2023/05/27 02:11:41;;;;;;;;;;;7.20;63.20;;;;;;4124682;28;19914;-88
2023/05/27 02:14:02;;;;;;;;;;;7.10;63.20;;;;;;4109118;28;19918;-88
2023/05/27 02:16:23;;;;;;;;;;;7.20;63.10;;;;;;4112246;28;19914;-88
2023/05/27 02:18:44;;;;;;;;;;;7.10;63.10;;;;;;4138961;28;19918;-88
2023/05/27 02:21:06;;;;;;;;;;;7.10;63.10;;;;;;4127158;28;19929;-86
2023/05/27 02:23:27;;;;;;;;;;;7.10;63.20;;;;;;4114040;28;19928;-87
2023/05/27 02:25:49;;;;;;;;;;;7.10;63.30;;;;;;4129831;28;19921;-88
2023/05/27 02:28:10;;;;;;;;;;;7.10;63.20;;;;;;4124518;28;19929;-88
2023/05/27 02:30:31;;;;;;;;;;;7.10;63.10;;;;;;4128846;28;20039;-88
2023/05/27 02:32:51;;;;;;;;;;;7.00;63.20;;;;;;4126215;28;20372;-87
2023/05/27 02:35:14;;;;;;;;;;;7.00;63.30;;;;;;4111829;28;20407;-86
2023/05/27 02:37:35;;;;;;;;;;;6.90;63.30;;;;;;4130796;28;20307;-86
2023/05/27 02:39:56;;;;;;;;;;;7.00;63.30;;;;;;4112780;28;20004;-88
2023/05/27 02:42:17;;;;;;;;;;;6.90;63.00;;;;;;4111617;28;19914;-87
2023/05/27 02:44:37;;;;;;;;;;;6.90;63.30;;;;;;4116184;28;19948;-87
2023/05/27 02:46:58;;;;;;;;;;;6.80;63.30;;;;;;4128209;28;20391;-88
2023/05/27 02:49:19;;;;;;;;;;;6.80;63.40;;;;;;4122456;28;20000;-87
2023/05/27 02:51:40;;;;;;;;;;;6.80;63.30;;;;;;4121078;28;19915;-88
2023/05/27 02:54:01;;;;;;;;;;;6.80;63.20;;;;;;4126688;28;19925;-85
2023/05/27 02:56:22;;;;;;;;;;;6.80;63.20;;;;;;4113889;28;19914;-86
2023/05/27 02:58:42;;;;;;;;;;;6.80;63.40;;;;;;4125247;28;19918;-87
2023/05/27 03:01:03;;;;;;;;;;;6.70;63.60;;;;;;4126974;28;19914;-86
2023/05/27 03:03:25;;;;;;;;;;;6.70;63.60;;;;;;4125826;28;19914;-86
2023/05/27 03:05:45;;;;;;;;;;;6.70;63.70;;;;;;4127405;28;19972;-87
2023/05/27 03:08:06;;;;;;;;;;;6.70;63.50;;;;;;4128030;28;19914;-87
2023/05/27 03:10:27;;;;;;;;;;;6.60;63.10;;;;;;4129616;28;20375;-86
2023/05/27 03:12:48;;;;;;;;;;;6.70;63.20;;;;;;4130310;28;19917;-86
2023/05/27 03:15:09;;;;;;;;;;;6.60;63.30;;;;;;4124829;28;19972;-88
2023/05/27 03:17:30;;;;;;;;;;;6.60;63.70;;;;;;4128800;28;19997;-87
2023/05/27 03:19:52;;;;;;;;;;;6.60;64.00;;;;;;4125596;28;20372;-87
2023/05/27 03:22:12;;;;;;;;;;;6.70;64.10;;;;;;4112983;28;19918;-87
2023/05/27 03:24:35;;;;;;;;;;;6.60;64.10;;;;;;4118513;28;19918;-87
2023/05/27 03:26:56;;;;;;;;;;;6.60;64.20;;;;;;4126943;28;20009;-88
2023/05/27 03:29:17;;;;;;;;;;;6.60;64.30;;;;;;4126873;28;20392;-88
2023/05/27 03:31:37;;;;;;;;;;;6.60;64.40;;;;;;4115141;28;19920;-88
2023/05/27 03:33:58;;;;;;;;;;;6.60;64.20;;;;;;4124768;28;19972;-88
2023/05/27 03:36:20;;;;;;;;;;;6.60;64.10;;;;;;4126409;28;20004;-87
2023/05/27 03:38:41;;;;;;;;;;;6.60;64.30;;;;;;4122701;28;20004;-88
2023/05/27 03:41:02;;;;;;;;;;;6.60;64.40;;;;;;4127274;28;19969;-88
2023/05/27 03:43:22;;;;;;;;;;;6.60;64.40;;;;;;4116271;28;19925;-87
2023/05/27 03:45:43;;;;;;;;;;;6.60;64.50;;;;;;4112231;28;19915;-88
2023/05/27 03:48:04;;;;;;;;;;;6.50;64.80;;;;;;4111724;28;19957;-85
2023/05/27 03:50:25;;;;;;;;;;;6.60;64.90;;;;;;4117790;28;19988;-87
2023/05/27 03:52:46;;;;;;;;;;;6.60;64.60;;;;;;4121953;28;19914;-88
2023/05/27 03:55:07;;;;;;;;;;;6.60;64.80;;;;;;4129107;28;20078;-87
2023/05/27 03:57:28;;;;;;;;;;;6.60;64.80;;;;;;4122090;28;20168;-86
2023/05/27 03:59:49;;;;;;;;;;;6.60;65.00;;;;;;4115196;28;19926;-87
2023/05/27 04:02:10;;;;;;;;;;;6.60;65.20;;;;;;4111801;28;19926;-87
2023/05/27 04:04:31;;;;;;;;;;;6.70;65.00;;;;;;4114978;28;20054;-86
2023/05/27 04:06:53;;;;;;;;;;;6.70;65.60;;;;;;4124070;28;19960;-86
2023/05/27 04:09:14;;;;;;;;;;;6.80;65.90;;;;;;4126579;28;19924;-88
2023/05/27 04:11:34;;;;;;;;;;;6.70;65.50;;;;;;4112827;28;19918;-87
2023/05/27 04:13:55;;;;;;;;;;;7.00;66.00;;;;;;4126550;28;19925;-88
2023/05/27 04:16:17;;;;;;;;;;;6.90;66.10;;;;;;4127678;23;20222;-87
2023/05/27 04:18:38;;;;;;;;;;;6.90;66.30;;;;;;4096051;28;20630;-87
2023/05/27 04:21:00;;;;;;;;;;;7.00;66.80;;;;;;4097332;28;19919;-87
2023/05/27 04:23:21;;;;;;;;;;;7.00;67.10;;;;;;4097624;28;19923;-86
2023/05/27 04:25:41;;;;;;;;;;;7.10;67.20;;;;;;4093224;28;19918;-88
2023/05/27 04:28:06;;;;;;;;;;;7.10;67.30;;;;;;4078009;29;19918;-87
2023/05/27 04:30:27;;;;;;;;;;;7.30;67.10;;;;;;4081103;29;19918;-87
2023/05/27 04:32:48;;;;;;;;;;;7.50;67.10;;;;;;4080917;29;19919;-86
2023/05/27 04:35:09;;;;;;;;;;;7.40;67.70;;;;;;4081312;29;19919;-87
2023/05/27 04:37:29;;;;;;;;;;;7.50;68.10;;;;;;4082189;29;20353;-88
2023/05/27 04:39:50;;;;;;;;;;;7.70;68.80;;;;;;4093639;29;19922;-87
2023/05/27 04:42:12;;;;;;;;;;;7.70;68.80;;;;;;4082937;29;20010;-87
2023/05/27 04:44:33;;;;;;;;;;;7.80;69.20;;;;;;4080620;28;19919;-88
2023/05/27 04:46:54;;;;;;;;;;;8.00;70.00;;;;;;4077314;29;19958;-86
2023/05/27 04:49:16;;;;;;;;;;;8.00;70.10;;;;;;4086835;29;20013;-88
2023/05/27 04:51:39;;;;;;;;;;;8.10;70.50;;;;;;4081291;29;20392;-88
2023/05/27 04:54:00;;;;;;;;;;;8.20;70.20;;;;;;4081407;28;20361;-86
2023/05/27 04:56:21;;;;;;;;;;;8.30;70.20;;;;;;4078702;29;19915;-86
2023/05/27 04:58:43;;;;;;;;;;;8.40;70.30;;;;;;4079460;29;19922;-86
2023/05/27 05:01:04;;;;;;;;;;;8.50;70.70;;;;;;4083769;29;19943;-86
2023/05/27 05:03:39;;;;;;;;;;;8.60;70.40;;;;;;4079033;29;20453;-86
2023/05/27 05:06:01;;;;;;;;;;;8.80;70.00;;;;;;4081414;28;19919;-87
2023/05/27 05:12:04;;;;;;;;;;;;;;;;;;;;;
2023/05/27 05:14:25;;;;;;;;;;;9.00;68.60;;;;;;4066894;29;19997;-85
2023/05/27 05:17:23;;;;;;;;;;;9.00;68.50;;;;;;4081573;29;20301;-87
2023/05/27 05:25:03;;;;;;;;;;;9.20;69.20;;;;;;4042067;29;19915;-90
2023/05/27 05:27:44;;;;;;;;;;;9.30;69.60;;;;;;4031001;29;20456;-90
2023/05/27 05:33:11;;;;;;;;;;;9.50;69.90;;;;;;4076863;23;19933;-90
2023/05/27 05:35:32;;;;;;;;;;;9.70;70.40;;;;;;4122268;28;21882;-91
2023/05/27 05:37:59;;;;;;;;;;;9.80;70.40;;;;;;4118089;28;20001;-91
2023/05/27 05:46:31;;;;;;;;;;;10.00;70.60;;;;;;4119154;28;19918;-91
2023/05/27 05:49:04;;;;;;;;;;;10.20;70.70;;;;;;4124750;28;19924;-91
2023/05/27 05:57:31;;;;;;;;;;;10.50;70.50;;;;;;4058021;29;19919;-91
2023/05/27 06:06:16;;;;;;;;;;;10.70;69.80;;;;;;4043067;29;19920;-92
2023/05/27 06:15:12;;;;;;;;;;;10.90;68.00;;;;;;4538114;23;20155;-91
2023/05/27 06:17:34;;;;;;;;;;;11.10;67.60;;;;;;4037160;29;20477;-92
2023/05/27 06:20:13;;;;;;;;;;;11.10;67.60;;;;;;4101844;28;20358;-92
2023/05/27 06:25:49;;;;;;;;;;;11.30;67.80;;;;;;4108283;28;20054;-93
2023/05/27 06:31:09;;;;;;;;;;;11.40;67.20;;;;;;4037361;29;19946;-91
2023/05/27 06:36:33;;;;;;;;;;;11.60;67.20;;;;;;4029303;29;20018;-92
2023/05/27 06:39:03;;;;;;;;;;;11.60;67.10;;;;;;4131941;23;19952;-93
2023/05/27 06:41:30;;;;;;;;;;;11.70;66.40;;;;;;4134749;28;19960;-92
2023/05/27 06:43:53;;;;;;;;;;;11.80;66.50;;;;;;4135596;28;20425;-91
2023/05/27 06:46:14;;;;;;;;;;;11.90;66.30;;;;;;4138810;28;19924;-90
2023/05/27 06:48:41;;;;;;;;;;;11.90;66.00;;;;;;4134489;28;19913;-91
2023/05/27 06:51:44;;;;;;;;;;;;;;;;;;;;;
2023/05/27 06:56:15;;;;;;;;;;;12.10;65.70;;;;;;4123690;26;20355;-86
2023/05/27 07:01:43;;;;;;;;;;;12.20;64.90;;;;;;4093392;28;19923;-88
2023/05/27 07:04:53;;;;;;;;;;;12.30;64.60;;;;;;4077904;29;19919;-88
2023/05/27 07:13:38;;;;;;;;;;;12.50;64.20;;;;;;3982687;29;19933;-87
2023/05/27 07:15:59;;;;;;;;;;;12.70;64.40;;;;;;3983999;29;19932;-87
2023/05/27 07:18:50;;;;;;;;;;;12.60;64.80;;;;;;3981333;29;19920;-88
2023/05/27 07:21:11;;;;;;;;;;;12.80;63.90;;;;;;3951409;29;19952;-86
2023/05/27 07:23:47;;;;;;;;;;;12.90;63.90;;;;;;3949818;29;19947;-87
2023/05/27 07:28:18;;;;;;;;;;;13.00;63.40;;;;;;4160210;23;20575;-88
2023/05/27 07:30:42;;;;;;;;;;;13.10;63.40;;;;;;4120394;28;19918;-87
2023/05/27 07:33:28;;;;;;;;;;;13.10;63.30;;;;;;4128375;28;19926;-86
2023/05/27 07:36:29;;;;;;;;;;;13.20;63.20;;;;;;4126832;28;19925;-87
2023/05/27 07:38:50;;;;;;;;;;;13.40;62.40;;;;;;4093693;28;20088;-87
2023/05/27 07:44:35;;;;;;;;;;;13.50;60.80;;;;;;4114103;28;19951;-88
2023/05/27 07:48:00;;;;;;;;;;;13.70;61.00;;;;;;4081856;28;20357;-87
2023/05/27 07:53:14;;;;;;;;;;;13.90;60.90;;;;;;4095483;28;19974;-85
2023/05/27 07:55:34;;;;;;;;;;;14.00;61.20;;;;;;4082960;29;19915;-86
2023/05/27 07:58:07;;;;;;;;;;;14.10;61.20;;;;;;4093273;28;19969;-86
2023/05/27 08:00:28;;;;;;;;;;;14.20;60.20;;;;;;4090244;28;20282;-86
2023/05/27 08:02:49;;;;;;;;;;;14.30;60.10;;;;;;4088113;28;19946;-87
2023/05/27 08:05:10;;;;;;;;;;;14.50;60.00;;;;;;4075871;28;19930;-87
2023/05/27 08:07:31;;;;;;;;;;;14.50;60.40;;;;;;4095646;28;20296;-87
2023/05/27 08:09:52;;;;;;;;;;;14.60;59.50;;;;;;4094539;28;19918;-86
2023/05/27 08:12:13;;;;;;;;;;;14.70;59.20;;;;;;4093520;28;20013;-87
2023/05/27 08:14:34;;;;;;;;;;;14.70;59.20;;;;;;4085299;28;20317;-87
2023/05/27 08:16:55;;;;;;;;;;;14.90;59.30;;;;;;4097300;28;20493;-87
2023/05/27 08:19:16;;;;;;;;;;;14.90;59.10;;;;;;4097215;28;19919;-87
2023/05/27 08:21:37;;;;;;;;;;;15.00;57.50;;;;;;4097841;28;20400;-85
2023/05/27 08:23:58;;;;;;;;;;;15.00;56.30;;;;;;4099326;28;19925;-86
2023/05/27 08:26:19;;;;;;;;;;;15.10;57.60;;;;;;4082868;28;19995;-89
2023/05/27 08:28:41;;;;;;;;;;;15.20;56.50;;;;;;4077692;28;19982;-88
2023/05/27 08:31:02;;;;;;;;;;;15.20;55.40;;;;;;4110644;28;20213;-88
2023/05/27 08:33:23;;;;;;;;;;;15.30;55.70;;;;;;4109536;28;19926;-86
2023/05/27 08:35:43;;;;;;;;;;;15.40;55.20;;;;;;4109260;28;19918;-86
2023/05/27 08:38:05;;;;;;;;;;;15.40;53.80;;;;;;4120323;28;19914;-88
2023/05/27 08:40:25;;;;;;;;;;;15.60;54.10;;;;;;4109429;28;19972;-87
2023/05/27 08:42:47;;;;;;;;;;;15.60;54.60;;;;;;4112691;28;19946;-87
2023/05/27 08:45:12;;;;;;;;;;;15.70;54.60;;;;;;4109784;28;19977;-88
2023/05/27 08:47:33;;;;;;;;;;;15.80;54.50;;;;;;4110291;28;20395;-87
2023/05/27 08:49:53;;;;;;;;;;;15.90;53.90;;;;;;4109671;28;20016;-87
2023/05/27 08:52:18;;;;;;;;;;;16.00;53.60;;;;;;4112176;28;19953;-87
2023/05/27 08:54:39;;;;;;;;;;;16.00;52.00;;;;;;4114306;28;19981;-87
2023/05/27 08:57:01;;;;;;;;;;;16.10;51.30;;;;;;4107570;28;19918;-87
2023/05/27 08:59:23;;;;;;;;;;;16.10;52.40;;;;;;4110040;28;19918;-88
2023/05/27 09:01:45;;;;;;;;;;;16.20;51.00;;;;;;4123646;28;19925;-88
2023/05/27 09:04:05;;;;;;;;;;;16.20;49.90;;;;;;4112583;28;19918;-87
2023/05/27 09:06:26;;;;;;;;;;;16.30;49.00;;;;;;4112181;28;19922;-87
2023/05/27 09:08:47;;;;;;;;;;;16.30;47.10;;;;;;4108588;28;19914;-87
2023/05/27 09:11:08;;;;;;;;;;;16.30;48.50;;;;;;4108437;28;19918;-87
2023/05/27 09:13:29;;;;;;;;;;;16.40;48.70;;;;;;4123973;28;19976;-87
2023/05/27 09:15:57;;;;;;;;;;;16.40;48.80;;;;;;4112502;28;19918;-87
2023/05/27 09:18:24;;;;;;;;;;;16.50;48.50;;;;;;4111268;28;19972;-85
2023/05/27 09:20:45;;;;;;;;;;;16.60;47.00;;;;;;4107853;28;19914;-87
2023/05/27 09:23:08;;;;;;;;;;;16.60;45.80;;;;;;4126328;28;19928;-89
2023/05/27 09:25:29;;;;;;;;;;;16.60;45.20;;;;;;4108351;28;20107;-89
2023/05/27 09:27:50;;;;;;;;;;;16.60;46.90;;;;;;4112124;28;19922;-88
2023/05/27 09:30:12;;;;;;;;;;;16.70;46.60;;;;;;4108505;28;20393;-87
2023/05/27 09:32:42;;;;;;;;;;;16.80;45.40;;;;;;4107034;28;20425;-87
2023/05/27 09:35:07;;;;;;;;;;;16.80;45.40;;;;;;4117898;28;19926;-87
2023/05/27 09:37:32;;;;;;;;;;;16.80;46.40;;;;;;4124627;28;20868;-87
2023/05/27 09:39:53;;;;;;;;;;;16.90;47.10;;;;;;4127750;28;19941;-88
2023/05/27 09:42:22;;;;;;;;;;;16.90;46.70;;;;;;4118382;28;19977;-86
2023/05/27 09:44:48;;;;;;;;;;;17.00;45.60;;;;;;4121267;28;19924;-90
2023/05/27 09:47:09;;;;;;;;;;;17.00;44.70;;;;;;4119262;28;20280;-87
2023/05/27 09:49:32;;;;;;;;;;;17.10;45.90;;;;;;4107550;28;20008;-86
2023/05/27 09:51:54;;;;;;;;;;;17.20;45.80;;;;;;4109559;28;20006;-86
2023/05/27 09:54:19;;;;;;;;;;;17.20;45.40;;;;;;4111044;28;20422;-89
2023/05/27 09:56:48;;;;;;;;;;;17.30;45.50;;;;;;4113681;28;20024;-88
2023/05/27 09:59:09;;;;;;;;;;;17.30;43.40;;;;;;4112247;28;20001;-85
2023/05/27 10:01:30;;;;;;;;;;;17.40;42.90;;;;;;4110078;28;20376;-87
2023/05/27 10:03:56;;;;;;;;;;;17.40;43.80;;;;;;4109432;28;20380;-88
2023/05/27 10:06:41;;;;;;;;;;;;;;;;;;;;;
2023/05/27 10:09:04;;;;;;;;;;;17.40;44.50;;;;;;4107561;28;20520;-85
2023/05/27 10:11:31;;;;;;;;;;;17.50;43.80;;;;;;4110172;28;19914;-86
2023/05/27 10:14:07;;;;;;;;;;;17.60;43.70;;;;;;4104195;28;20333;-87
2023/05/27 10:16:31;;;;;;;;;;;17.60;43.30;;;;;;4105207;28;19918;-86
2023/05/27 10:19:01;;;;;;;;;;;17.70;44.20;;;;;;4109855;28;19925;-86
2023/05/27 10:21:23;;;;;;;;;;;17.70;42.50;;;;;;4105761;28;20895;-85
2023/05/27 10:23:52;;;;;;;;;;;17.80;42.90;;;;;;4108235;28;19961;-86
2023/05/27 10:26:13;;;;;;;;;;;17.80;40.80;;;;;;4110134;28;19972;-86
2023/05/27 10:28:39;;;;;;;;;;;17.80;42.70;;;;;;4111049;28;19918;-87
2023/05/27 10:31:18;;;;;;;;;;;17.80;38.70;;;;;;4105626;28;20701;-87
2023/05/27 10:33:40;;;;;;;;;;;17.80;38.10;;;;;;4107259;28;19919;-86
2023/05/27 10:36:10;;;;;;;;;;;17.80;39.50;;;;;;4107816;28;19921;-87
2023/05/27 10:38:34;;;;;;;;;;;17.80;41.30;;;;;;4108698;28;19922;-87
2023/05/27 10:40:59;;;;;;;;;;;17.90;39.70;;;;;;4120401;28;19998;-86
2023/05/27 10:43:20;;;;;;;;;;;17.90;41.40;;;;;;4110516;28;19941;-87
2023/05/27 10:45:47;;;;;;;;;;;18.00;41.70;;;;;;4107833;28;19915;-87
2023/05/27 10:48:39;;;;;;;;;;;18.00;41.80;;;;;;4109257;28;20435;-86
2023/05/27 10:51:00;;;;;;;;;;;18.10;42.40;;;;;;4103957;28;19918;-86
2023/05/27 10:53:26;;;;;;;;;;;18.30;42.90;;;;;;4109713;28;19918;-87
2023/05/27 10:55:49;;;;;;;;;;;18.30;42.90;;;;;;4110438;28;20125;-85
2023/05/27 10:58:11;;;;;;;;;;;18.40;41.70;;;;;;4111604;28;19950;-86
2023/05/27 11:00:32;;;;;;;;;;;18.40;41.90;;;;;;4117128;28;20369;-87
2023/05/27 11:02:54;;;;;;;;;;;18.50;41.20;;;;;;4115904;28;19918;-86
2023/05/27 11:05:27;;;;;;;;;;;18.50;39.00;;;;;;4116124;28;19925;-86
2023/05/27 11:07:48;;;;;;;;;;;18.50;39.50;;;;;;4123347;28;19954;-88
2023/05/27 11:10:09;;;;;;;;;;;18.50;40.80;;;;;;4133759;28;19946;-88
2023/05/27 11:12:31;;;;;;;;;;;18.60;41.00;;;;;;4132790;28;19937;-87
2023/05/27 11:14:52;;;;;;;;;;;18.60;41.30;;;;;;4131389;28;19930;-87
2023/05/27 11:17:13;;;;;;;;;;;18.70;38.30;;;;;;4123237;28;19921;-86
2023/05/27 11:19:47;;;;;;;;;;;18.60;36.30;;;;;;4123694;28;19926;-87
2023/05/27 11:22:08;;;;;;;;;;;18.70;39.30;;;;;;4113408;28;19922;-84
2023/05/27 11:24:29;;;;;;;;;;;18.70;39.00;;;;;;4111087;28;20102;-83
2023/05/27 11:26:50;;;;;;;;;;;18.70;38.20;;;;;;4108828;28;19914;-86
2023/05/27 11:29:11;;;;;;;;;;;18.70;38.80;;;;;;4110102;28;19918;-84
2023/05/27 11:31:32;;;;;;;;;;;18.60;38.10;;;;;;4113737;28;19918;-85
2023/05/27 11:33:53;;;;;;;;;;;18.70;38.10;;;;;;4116490;28;20043;-86
2023/05/27 11:36:15;;;;;;;;;;;18.70;39.20;;;;;;4114950;28;19918;-84
2023/05/27 11:38:55;;;;;;;;;;;18.70;37.70;;;;;;4112089;28;19953;-86
2023/05/27 11:41:17;;;;;;;;;;;18.70;38.90;;;;;;4106324;28;19977;-85
2023/05/27 11:43:46;;;;;;;;;;;18.70;36.50;;;;;;4108508;28;19914;-86
2023/05/27 11:46:09;;;;;;;;;;;18.70;37.20;;;;;;4113831;28;19915;-82
2023/05/27 11:48:47;;;;;;;;;;;18.70;37.20;;;;;;4113789;28;19973;-86
2023/05/27 11:51:13;;;;;;;;;;;18.70;36.80;;;;;;4121192;28;19964;-83
2023/05/27 11:53:55;;;;;;;;;;;18.80;38.60;;;;;;4109726;28;19929;-85
2023/05/27 11:56:16;;;;;;;;;;;18.80;38.40;;;;;;4108467;28;20005;-84
2023/05/27 11:58:43;;;;;;;;;;;18.80;38.20;;;;;;4113868;28;19945;-85
2023/05/27 12:01:21;;;;;;;;;;;18.70;37.40;;;;;;4128115;28;20463;-86
2023/05/27 12:03:42;;;;;;;;;;;18.70;37.00;;;;;;4124901;28;19918;-85
2023/05/27 12:06:04;;;;;;;;;;;18.70;37.80;;;;;;4109489;28;19953;-86
2023/05/27 12:08:24;;;;;;;;;;;18.70;35.80;;;;;;4111262;28;19910;-86
2023/05/27 12:10:53;;;;;;;;;;;18.70;36.60;;;;;;4113091;28;19952;-84
2023/05/27 12:13:23;;;;;;;;;;;18.60;35.70;;;;;;4112586;28;19928;-85
2023/05/27 12:15:50;;;;;;;;;;;18.60;37.00;;;;;;4109324;28;19990;-86
2023/05/27 12:18:16;;;;;;;;;;;18.60;36.70;;;;;;4109804;28;20387;-86
2023/05/27 12:20:37;;;;;;;;;;;18.60;36.60;;;;;;4110862;28;19928;-86
2023/05/27 12:22:58;;;;;;;;;;;18.60;37.00;;;;;;4109849;28;19918;-85
2023/05/27 12:25:28;;;;;;;;;;;18.60;36.20;;;;;;4109957;28;19925;-85
2023/05/27 12:27:55;;;;;;;;;;;18.50;36.60;;;;;;4111202;28;20013;-85
2023/05/27 12:33:03;;;;;;;;;;;18.50;36.40;;;;;;4110588;28;20343;-85
2023/05/27 12:35:24;;;;;;;;;;;18.50;35.80;;;;;;4104249;28;19918;-86
2023/05/27 12:37:45;;;;;;;;;;;18.50;36.90;;;;;;4110599;28;20392;-87
2023/05/27 12:40:09;;;;;;;;;;;18.50;36.40;;;;;;4111950;28;19969;-85
2023/05/27 12:43:08;;;;;;;;;;;18.50;36.70;;;;;;4109381;28;20296;-85
2023/05/27 12:45:31;;;;;;;;;;;18.60;37.40;;;;;;4110973;28;19918;-86
2023/05/27 12:47:52;;;;;;;;;;;18.60;36.50;;;;;;4110579;28;19922;-87
2023/05/27 12:50:13;;;;;;;;;;;18.60;36.80;;;;;;4109676;28;19968;-85
2023/05/27 12:52:56;;;;;;;;;;;18.60;37.80;;;;;;4111207;28;19917;-85
2023/05/27 12:55:18;;;;;;;;;;;18.60;38.30;;;;;;4108969;28;19922;-87
2023/05/27 12:57:39;;;;;;;;;;;18.70;37.20;;;;;;4110275;28;20377;-85
2023/05/27 13:00:24;;;;;;;;;;;18.70;37.60;;;;;;4109186;28;19929;-86
2023/05/27 13:02:46;;;;;;;;;;;18.70;37.90;;;;;;4111135;28;20296;-86
2023/05/27 13:05:08;;;;;;;;;;;18.80;35.40;;;;;;4111475;28;19914;-86
2023/05/27 13:07:29;;;;;;;;;;;18.70;36.00;;;;;;4109268;28;20369;-85
2023/05/27 13:09:50;;;;;;;;;;;18.80;37.40;;;;;;4110980;28;20457;-86
2023/05/27 13:12:10;;;;;;;;;;;18.70;36.10;;;;;;4108812;28;19918;-87
2023/05/27 13:14:31;;;;;;;;;;;18.70;37.00;;;;;;4109627;28;19918;-85
2023/05/27 13:17:22;;;;;;;;;;;18.70;36.20;;;;;;4106160;28;19957;-86
2023/05/27 13:19:43;;;;;;;;;;;18.80;37.20;;;;;;4083358;28;19946;-86
2023/05/27 13:22:04;;;;;;;;;;;18.80;37.90;;;;;;4094684;28;19914;-85
2023/05/27 13:24:25;;;;;;;;;;;18.80;37.80;;;;;;4091094;28;19950;-86
2023/05/27 13:26:49;;;;;;;;;;;18.80;37.80;;;;;;4095124;28;19918;-86
2023/05/27 13:29:10;;;;;;;;;;;18.80;38.30;;;;;;4095265;28;20110;-87
2023/05/27 13:32:03;;;;;;;;;;;18.90;37.90;;;;;;4087836;28;19918;-87
2023/05/27 13:34:24;;;;;;;;;;;18.90;36.40;;;;;;4089014;28;19985;-87
2023/05/27 13:36:45;;;;;;;;;;;18.90;37.40;;;;;;4094961;28;19982;-86
2023/05/27 13:39:06;;;;;;;;;;;18.90;36.90;;;;;;4091324;28;19925;-86
2023/05/27 13:41:27;;;;;;;;;;;18.90;36.90;;;;;;4095722;28;19922;-89
2023/05/27 13:43:47;;;;;;;;;;;19.00;37.40;;;;;;4093353;28;20006;-87
2023/05/27 13:46:08;;;;;;;;;;;19.00;36.50;;;;;;4089317;28;20738;-87
2023/05/27 13:48:30;;;;;;;;;;;19.00;36.60;;;;;;4094607;28;20399;-87
2023/05/27 13:50:51;;;;;;;;;;;19.10;37.60;;;;;;4091744;28;20475;-86
2023/05/27 13:53:11;;;;;;;;;;;19.00;36.70;;;;;;4090354;28;19924;-87
2023/05/27 13:55:32;;;;;;;;;;;19.00;37.50;;;;;;4096778;28;20403;-87
2023/05/27 13:57:54;;;;;;;;;;;19.10;38.30;;;;;;4108478;28;19962;-87
2023/05/27 14:00:16;;;;;;;;;;;19.10;38.40;;;;;;4117219;28;19914;-86
2023/05/27 14:02:37;;;;;;;;;;;19.10;38.20;;;;;;4105303;28;19918;-86
2023/05/27 14:04:58;;;;;;;;;;;19.10;38.80;;;;;;4106718;28;20291;-87
2023/05/27 14:07:19;;;;;;;;;;;19.00;37.80;;;;;;4112503;28;19926;-88
2023/05/27 14:09:41;;;;;;;;;;;19.00;37.90;;;;;;4108141;28;19929;-87
2023/05/27 14:12:02;;;;;;;;;;;19.10;39.00;;;;;;4110217;28;19914;-85
2023/05/27 14:14:23;;;;;;;;;;;19.00;39.30;;;;;;4108020;28;19936;-87
2023/05/27 14:16:43;;;;;;;;;;;19.10;39.90;;;;;;4112651;28;19922;-86
2023/05/27 14:19:04;;;;;;;;;;;19.00;39.70;;;;;;4108110;28;19919;-86
2023/05/27 14:21:25;;;;;;;;;;;19.00;39.60;;;;;;4107369;28;19918;-85
2023/05/27 14:23:46;;;;;;;;;;;19.00;39.10;;;;;;4108633;28;19933;-87
2023/05/27 14:26:07;;;;;;;;;;;19.00;39.40;;;;;;4105932;28;20427;-86
2023/05/27 14:28:28;;;;;;;;;;;19.00;39.10;;;;;;4106305;28;20462;-86
2023/05/27 14:30:49;;;;;;;;;;;19.00;38.20;;;;;;4105557;28;19936;-86
2023/05/27 14:33:10;;;;;;;;;;;19.00;39.10;;;;;;4109087;28;19923;-88
2023/05/27 14:35:31;;;;;;;;;;;18.90;39.30;;;;;;4111376;28;19918;-86
2023/05/27 14:37:52;;;;;;;;;;;19.00;38.80;;;;;;4113249;28;19922;-88
2023/05/27 14:40:13;;;;;;;;;;;19.00;39.20;;;;;;4110535;28;20452;-86
2023/05/27 14:42:33;;;;;;;;;;;19.00;39.40;;;;;;4105755;28;19969;-87
2023/05/27 14:44:54;;;;;;;;;;;19.00;39.60;;;;;;4110476;28;19934;-86
2023/05/27 14:47:15;;;;;;;;;;;19.00;39.20;;;;;;4111563;28;19941;-85
2023/05/27 14:49:36;;;;;;;;;;;19.00;38.70;;;;;;4112783;28;20381;-86
2023/05/27 14:51:57;;;;;;;;;;;19.00;38.40;;;;;;4111126;28;19921;-88
2023/05/27 14:54:18;;;;;;;;;;;19.10;39.00;;;;;;4113157;28;21405;-85
2023/05/27 14:56:38;;;;;;;;;;;19.00;39.10;;;;;;4116838;28;19918;-87
2023/05/27 14:58:59;;;;;;;;;;;19.00;38.10;;;;;;4114103;28;19929;-87
2023/05/27 15:01:20;;;;;;;;;;;19.00;38.50;;;;;;4125203;28;19992;-87
2023/05/27 15:03:41;;;;;;;;;;;18.90;38.50;;;;;;4113988;28;19921;-86
2023/05/27 15:06:02;;;;;;;;;;;18.90;39.10;;;;;;4111789;28;19915;-86
2023/05/27 15:08:23;;;;;;;;;;;18.90;39.40;;;;;;4112363;28;20518;-87
2023/05/27 15:10:44;;;;;;;;;;;18.90;39.90;;;;;;4113751;28;19949;-86
2023/05/27 15:13:04;;;;;;;;;;;18.90;40.60;;;;;;4116477;28;19918;-87
2023/05/27 15:15:26;;;;;;;;;;;18.90;40.60;;;;;;4115513;28;19918;-86